createdAt,value
2023-05-10T00:01:26.162Z,16.56
2023-05-10T00:03:52.782Z,16.41
2023-05-10T00:06:19.486Z,16.37
2023-05-10T00:08:46.412Z,16.41
2023-05-10T00:11:14.532Z,16.46
2023-05-10T00:13:42.415Z,16.55
2023-05-10T00:16:08.999Z,16.60
2023-05-10T00:18:35.805Z,16.55
2023-05-10T00:21:02.362Z,16.61
2023-05-10T00:23:28.983Z,16.61
2023-05-10T00:25:55.523Z,16.62
2023-05-10T00:28:23.797Z,16.63
2023-05-10T00:30:50.467Z,16.70
2023-05-10T00:33:17.100Z,16.67
2023-05-10T00:35:43.656Z,16.64
2023-05-10T00:38:10.246Z,16.62
2023-05-10T00:40:37.040Z,16.63
2023-05-10T00:43:03.633Z,16.69
2023-05-10T00:45:32.791Z,16.66
2023-05-10T00:48:00.002Z,16.53
2023-05-10T00:50:26.882Z,16.61
2023-05-10T00:52:53.733Z,16.60
2023-05-10T00:55:20.815Z,16.42
2023-05-10T00:57:48.088Z,16.48
2023-05-10T01:00:15.667Z,16.45
2023-05-10T01:02:43.824Z,16.35
2023-05-10T01:05:13.427Z,16.32
2023-05-10T01:07:40.735Z,16.42
2023-05-10T01:10:08.961Z,16.36
2023-05-10T01:12:38.039Z,16.37
2023-05-10T01:15:06.374Z,16.24
2023-05-10T01:17:34.044Z,16.38
2023-05-10T01:20:02.373Z,16.39
2023-05-10T01:23:01.105Z,16.33
2023-05-10T01:26:01.649Z,16.25
2023-05-10T01:28:48.674Z,16.23
2023-05-10T01:31:38.919Z,16.15
2023-05-10T01:34:10.211Z,16.06
2023-05-10T01:36:52.298Z,16.04
2023-05-10T01:39:25.505Z,16.00
2023-05-10T01:41:56.661Z,15.99
2023-05-10T01:44:32.210Z,16.10
2023-05-10T01:47:04.049Z,16.08
2023-05-10T01:49:36.000Z,16.10
2023-05-10T01:52:09.317Z,16.03
2023-05-10T01:54:39.396Z,16.04
2023-05-10T01:57:09.978Z,16.05
2023-05-10T01:59:39.085Z,16.09
2023-05-10T02:02:06.951Z,16.14
2023-05-10T02:04:38.090Z,15.94
2023-05-10T02:07:05.754Z,16.09
2023-05-10T02:09:34.485Z,16.23
2023-05-10T02:12:03.449Z,16.16
2023-05-10T02:14:33.349Z,16.15
2023-05-10T02:17:02.049Z,16.21
2023-05-10T02:19:29.913Z,16.11
2023-05-10T02:21:59.834Z,16.06
2023-05-10T02:24:27.289Z,16.06
2023-05-10T02:26:56.084Z,16.07
2023-05-10T02:29:43.085Z,16.10
2023-05-10T02:32:12.337Z,16.09
2023-05-10T02:34:40.344Z,16.15
2023-05-10T02:37:09.348Z,16.17
2023-05-10T02:39:36.386Z,16.20
2023-05-10T02:42:03.494Z,16.20
2023-05-10T02:44:30.640Z,16.26
2023-05-10T02:46:57.359Z,16.20
2023-05-10T02:49:23.981Z,16.14
2023-05-10T02:51:56.418Z,16.14
2023-05-10T02:54:30.401Z,16.23
2023-05-10T02:57:00.131Z,16.21
2023-05-10T02:59:26.737Z,16.23
2023-05-10T03:01:53.359Z,16.11
2023-05-10T03:04:20.110Z,16.13
2023-05-10T03:06:47.139Z,16.15
2023-05-10T03:09:14.136Z,16.26
2023-05-10T03:11:50.811Z,16.31
2023-05-10T03:14:26.619Z,16.26
2023-05-10T03:17:01.360Z,16.30
2023-05-10T03:19:33.276Z,16.35
2023-05-10T03:22:06.022Z,16.34
2023-05-10T03:24:36.191Z,16.27
2023-05-10T03:27:05.453Z,16.33
2023-05-10T03:29:32.770Z,16.36
2023-05-10T03:31:59.750Z,16.38
2023-05-10T03:34:26.803Z,16.45
2023-05-10T03:36:53.360Z,16.49
2023-05-10T03:39:20.163Z,16.39
2023-05-10T03:41:46.733Z,16.37
2023-05-10T03:44:14.665Z,16.42
2023-05-10T03:46:41.229Z,16.40
2023-05-10T03:49:07.831Z,16.42
2023-05-10T03:51:34.550Z,16.43
2023-05-10T03:54:01.070Z,16.39
2023-05-10T03:56:27.785Z,16.42
2023-05-10T03:58:54.444Z,16.40
2023-05-10T04:01:22.404Z,16.39
2023-05-10T04:03:49.121Z,16.43
2023-05-10T04:06:15.756Z,16.43
2023-05-10T04:08:42.290Z,16.44
2023-05-10T04:11:10.248Z,16.45
2023-05-10T04:13:36.896Z,16.46
2023-05-10T04:16:04.098Z,16.44
2023-05-10T04:18:32.077Z,16.27
2023-05-10T04:20:58.753Z,16.37
2023-05-10T04:23:25.495Z,16.37
2023-05-10T04:25:52.191Z,16.49
2023-05-10T04:28:18.814Z,16.52
2023-05-10T04:30:45.693Z,16.50
2023-05-10T04:33:12.316Z,16.47
2023-05-10T04:35:40.325Z,16.63
2023-05-10T04:38:06.896Z,16.64
2023-05-10T04:40:33.575Z,16.47
2023-05-10T04:43:00.188Z,16.60
2023-05-10T04:45:26.764Z,16.63
2023-05-10T04:47:53.409Z,16.60
2023-05-10T04:50:20.166Z,16.60
2023-05-10T04:52:48.504Z,16.56
2023-05-10T04:55:15.284Z,16.55
2023-05-10T04:57:41.877Z,16.47
2023-05-10T05:00:09.569Z,16.53
2023-05-10T05:02:36.267Z,16.49
2023-05-10T05:05:02.950Z,16.48
2023-05-10T05:07:29.521Z,16.64
2023-05-10T05:09:57.529Z,16.65
2023-05-10T05:12:24.110Z,16.66
2023-05-10T05:14:50.664Z,16.73
2023-05-10T05:17:17.232Z,16.80
2023-05-10T05:19:43.668Z,16.77
2023-05-10T05:22:10.300Z,16.97
2023-05-10T05:24:37.333Z,16.92
2023-05-10T05:27:05.278Z,17.17
2023-05-10T05:29:31.889Z,17.20
2023-05-10T05:31:59.076Z,17.21
2023-05-10T05:34:25.786Z,17.14
2023-05-10T05:36:52.335Z,17.23
2023-05-10T05:39:19.102Z,17.25
2023-05-10T05:41:45.664Z,17.36
2023-05-10T05:44:14.117Z,17.35
2023-05-10T05:46:40.692Z,17.56
2023-05-10T05:49:07.339Z,17.74
2023-05-10T05:51:33.961Z,17.56
2023-05-10T05:54:00.678Z,17.52
2023-05-10T05:56:27.264Z,17.54
2023-05-10T05:58:54.090Z,17.62
2023-05-10T06:01:22.137Z,17.66
2023-05-10T06:03:49.764Z,17.68
2023-05-10T06:06:17.563Z,17.75
2023-05-10T06:08:43.970Z,17.63
2023-05-10T06:11:10.506Z,17.65
2023-05-10T06:13:37.072Z,17.58
2023-05-10T06:16:03.807Z,17.64
2023-05-10T06:18:31.737Z,17.42
2023-05-10T06:20:58.413Z,17.59
2023-05-10T06:23:25.368Z,17.67
2023-05-10T06:25:52.220Z,17.52
2023-05-10T06:28:18.916Z,17.35
2023-05-10T06:30:45.529Z,17.37
2023-05-10T06:33:12.189Z,17.13
2023-05-10T06:35:40.365Z,17.09
2023-05-10T06:38:06.934Z,17.23
2023-05-10T06:40:33.564Z,17.52
2023-05-10T06:43:00.166Z,17.65
2023-05-10T06:45:26.721Z,17.80
2023-05-10T06:47:53.401Z,17.91
2023-05-10T06:50:20.072Z,17.74
2023-05-10T06:52:48.261Z,17.78
2023-05-10T06:55:15.292Z,17.69
2023-05-10T06:57:42.071Z,17.77
2023-05-10T07:00:09.310Z,17.66
2023-05-10T07:02:36.151Z,17.73
2023-05-10T07:05:03.576Z,17.52
2023-05-10T07:07:30.354Z,17.47
2023-05-10T07:09:58.438Z,17.17
2023-05-10T07:12:25.281Z,17.08
2023-05-10T07:14:51.883Z,17.16
2023-05-10T07:17:18.652Z,17.04
2023-05-10T07:19:45.296Z,17.20
2023-05-10T07:22:11.934Z,17.45
2023-05-10T07:24:38.572Z,17.55
2023-05-10T07:27:06.649Z,17.73
2023-05-10T07:29:33.619Z,17.90
2023-05-10T07:32:00.297Z,18.33
2023-05-10T07:34:26.944Z,18.78
2023-05-10T07:36:53.976Z,19.11
2023-05-10T07:39:26.707Z,19.44
2023-05-10T07:41:54.686Z,19.63
2023-05-10T07:44:22.713Z,19.58
2023-05-10T07:46:49.447Z,19.18
2023-05-10T07:49:16.278Z,18.93
2023-05-10T07:51:42.975Z,18.53
2023-05-10T07:54:09.595Z,18.72
2023-05-10T07:56:36.282Z,18.72
2023-05-10T07:59:04.244Z,18.55
2023-05-10T08:01:34.462Z,18.84
2023-05-10T08:04:01.873Z,19.07
2023-05-10T08:06:28.771Z,19.14
2023-05-10T08:08:55.235Z,19.58
2023-05-10T08:11:21.841Z,19.84
2023-05-10T08:13:49.915Z,20.05
2023-05-10T08:16:16.846Z,20.04
2023-05-10T08:18:45.779Z,19.80
2023-05-10T08:21:12.539Z,19.58
2023-05-10T08:23:39.176Z,19.34
2023-05-10T08:26:05.891Z,19.08
2023-05-10T08:28:32.629Z,18.65
2023-05-10T08:30:59.297Z,18.30
2023-05-10T08:33:28.062Z,18.43
2023-05-10T08:35:55.926Z,18.77
2023-05-10T08:38:22.628Z,18.97
2023-05-10T08:40:50.758Z,19.49
2023-05-10T08:43:17.696Z,19.90
2023-05-10T08:45:45.591Z,20.07
2023-05-10T08:48:12.393Z,20.34
2023-05-10T08:50:43.691Z,20.88
2023-05-10T08:53:13.139Z,21.70
2023-05-10T08:55:40.788Z,21.99
2023-05-10T08:58:07.781Z,22.79
2023-05-10T09:00:34.885Z,23.22
2023-05-10T09:03:03.860Z,22.73
2023-05-10T09:05:30.556Z,22.86
2023-05-10T09:07:57.150Z,22.42
2023-05-10T09:10:26.743Z,22.05
2023-05-10T09:12:54.345Z,22.24
2023-05-10T09:15:21.130Z,22.67
2023-05-10T09:17:50.113Z,22.65
2023-05-10T09:20:16.882Z,22.81
2023-05-10T09:22:43.528Z,22.18
2023-05-10T09:25:12.498Z,21.54
2023-05-10T09:27:41.558Z,20.74
2023-05-10T09:30:09.836Z,19.94
2023-05-10T09:32:40.817Z,19.16
2023-05-10T09:35:08.858Z,19.48
2023-05-10T09:37:35.550Z,19.38
2023-05-10T09:40:05.776Z,19.62
2023-05-10T09:42:32.372Z,19.63
2023-05-10T09:45:03.461Z,19.96
2023-05-10T09:47:30.085Z,20.38
2023-05-10T09:49:58.761Z,20.46
2023-05-10T09:52:25.350Z,20.82
2023-05-10T09:54:54.551Z,20.63
2023-05-10T09:57:22.180Z,20.53
2023-05-10T09:59:49.176Z,20.60
2023-05-10T10:02:17.443Z,20.70
2023-05-10T10:04:44.221Z,20.65
2023-05-10T10:07:10.867Z,20.69
2023-05-10T10:09:37.512Z,20.74
2023-05-10T10:12:04.933Z,20.86
2023-05-10T10:14:31.667Z,21.31
2023-05-10T10:19:34.248Z,21.50
2023-05-10T10:22:01.312Z,21.80
2023-05-10T10:24:28.080Z,21.78
2023-05-10T10:26:58.230Z,22.11
2023-05-10T10:29:32.255Z,22.13
2023-05-10T10:32:10.285Z,22.02
2023-05-10T10:34:40.386Z,22.00
2023-05-10T10:37:08.362Z,21.27
2023-05-10T10:39:34.957Z,20.42
2023-05-10T10:42:01.604Z,19.84
2023-05-10T10:44:36.593Z,19.79
2023-05-10T10:47:06.042Z,19.82
2023-05-10T10:49:33.569Z,19.95
2023-05-10T10:52:33.296Z,19.97
2023-05-10T10:55:02.254Z,20.14
2023-05-10T10:57:29.525Z,19.98
2023-05-10T11:00:30.281Z,19.98
2023-05-10T11:03:03.509Z,20.24
2023-05-10T11:05:41.538Z,20.30
2023-05-10T11:08:20.290Z,20.26
2023-05-10T11:10:55.254Z,20.42
2023-05-10T11:13:30.100Z,20.76
2023-05-10T11:15:57.293Z,20.96
2023-05-10T11:18:26.288Z,21.20
2023-05-10T11:20:53.803Z,21.86
2023-05-10T11:23:23.497Z,22.67
2023-05-10T11:25:50.484Z,22.49
2023-05-10T11:28:18.910Z,23.16
2023-05-10T11:30:46.260Z,23.87
2023-05-10T11:33:17.212Z,23.57
2023-05-10T11:35:44.015Z,23.48
2023-05-10T11:38:12.005Z,23.21
2023-05-10T11:40:40.680Z,22.98
2023-05-10T11:43:09.236Z,22.18
2023-05-10T11:45:36.170Z,21.79
2023-05-10T11:48:04.021Z,21.36
2023-05-10T11:50:30.771Z,20.93
2023-05-10T11:52:58.173Z,20.56
2023-05-10T11:55:25.056Z,20.33
2023-05-10T11:57:55.143Z,20.72
2023-05-10T12:00:22.210Z,21.56
2023-05-10T12:02:49.451Z,22.27
2023-05-10T12:05:16.320Z,22.71
2023-05-10T12:07:42.939Z,22.59
2023-05-10T12:10:10.986Z,22.25
2023-05-10T12:12:41.646Z,21.83
2023-05-10T12:15:12.057Z,22.06
2023-05-10T12:17:40.702Z,22.29
2023-05-10T12:20:16.274Z,22.76
2023-05-10T12:22:45.937Z,22.80
2023-05-10T12:25:12.578Z,22.34
2023-05-10T12:27:39.264Z,22.13
2023-05-10T12:30:07.138Z,22.45
2023-05-10T12:32:42.326Z,22.48
2023-05-10T12:35:09.360Z,22.66
2023-05-10T12:37:36.347Z,22.64
2023-05-10T12:40:03.137Z,23.11
2023-05-10T12:42:29.888Z,23.50
2023-05-10T12:44:57.127Z,24.08
2023-05-10T12:47:23.694Z,24.21
2023-05-10T12:49:51.690Z,24.23
2023-05-10T12:52:18.317Z,24.36
2023-05-10T12:54:44.958Z,24.90
2023-05-10T12:57:11.568Z,25.27
2023-05-10T12:59:38.416Z,25.19
2023-05-10T13:02:05.305Z,25.39
2023-05-10T13:04:32.014Z,25.48
2023-05-10T13:07:00.137Z,25.29
2023-05-10T13:09:28.620Z,25.13
2023-05-10T13:11:55.201Z,24.81
2023-05-10T13:14:21.956Z,24.64
2023-05-10T13:16:48.779Z,24.91
2023-05-10T13:19:16.558Z,24.91
2023-05-10T13:21:43.309Z,24.92
2023-05-10T13:24:11.466Z,24.78
2023-05-10T13:26:38.162Z,24.92
2023-05-10T13:29:04.717Z,24.99
2023-05-10T13:31:31.393Z,24.98
2023-05-10T13:33:58.021Z,25.11
2023-05-10T13:36:24.634Z,24.68
2023-05-10T13:38:51.260Z,24.79
2023-05-10T13:41:19.236Z,24.98
2023-05-10T13:43:45.795Z,24.72
2023-05-10T13:46:12.434Z,24.80
2023-05-10T13:48:39.280Z,25.01
2023-05-10T13:51:05.981Z,25.06
2023-05-10T13:53:32.556Z,24.70
2023-05-10T13:56:02.027Z,24.39
2023-05-10T13:58:30.004Z,24.65
2023-05-10T14:04:18.385Z,25.28
2023-05-10T14:06:44.961Z,25.03
2023-05-10T14:09:11.540Z,24.99
2023-05-10T14:11:38.115Z,24.87
2023-05-10T14:14:06.042Z,24.93
2023-05-10T14:16:32.655Z,24.77
2023-05-10T14:18:59.269Z,24.03
2023-05-10T14:21:25.985Z,23.63
2023-05-10T14:23:52.536Z,23.61
2023-05-10T14:26:19.113Z,23.55
2023-05-10T14:28:45.755Z,23.43
2023-05-10T14:31:13.856Z,23.57
2023-05-10T14:33:40.533Z,23.68
2023-05-10T14:36:07.752Z,23.37
2023-05-10T14:38:34.176Z,23.77
2023-05-10T14:41:00.766Z,23.55
2023-05-10T14:43:27.439Z,23.46
2023-05-10T14:45:55.520Z,22.96
2023-05-10T14:48:23.530Z,22.37
2023-05-10T14:50:50.094Z,22.46
2023-05-10T14:53:16.686Z,22.39
2023-05-10T14:55:43.456Z,22.26
2023-05-10T14:58:10.033Z,22.17
2023-05-10T15:00:41.572Z,21.94
2023-05-10T15:03:08.669Z,21.89
2023-05-10T15:05:39.781Z,21.64
2023-05-10T15:08:06.443Z,21.62
2023-05-10T15:10:34.364Z,21.81
2023-05-10T15:13:01.412Z,21.78
2023-05-10T15:15:28.000Z,21.87
2023-05-10T15:17:54.589Z,21.91
2023-05-10T15:20:21.232Z,22.00
2023-05-10T15:22:49.176Z,22.20
2023-05-10T15:25:15.859Z,22.38
2023-05-10T15:27:42.741Z,22.40
2023-05-10T15:30:10.395Z,22.58
2023-05-10T15:32:36.959Z,22.66
2023-05-10T15:35:03.813Z,22.65
2023-05-10T15:37:32.963Z,22.57
2023-05-10T15:40:01.329Z,22.77
2023-05-10T15:42:27.885Z,22.77
2023-05-10T15:44:54.474Z,22.51
2023-05-10T15:47:21.121Z,22.29
2023-05-10T15:49:48.103Z,22.39
2023-05-10T15:52:14.677Z,22.58
2023-05-10T15:54:41.405Z,22.80
2023-05-10T15:57:09.343Z,22.93
2023-05-10T15:59:35.894Z,22.95
2023-05-10T16:02:02.581Z,22.98
2023-05-10T16:04:29.145Z,22.83
2023-05-10T16:06:55.810Z,23.04
2023-05-10T16:09:22.407Z,22.97
2023-05-10T16:11:49.041Z,22.91
2023-05-10T16:14:16.970Z,23.05
2023-05-10T16:16:43.643Z,22.95
2023-05-10T16:19:10.276Z,22.74
2023-05-10T16:21:36.926Z,22.53
2023-05-10T16:24:03.820Z,22.53
2023-05-10T16:26:30.481Z,22.26
2023-05-10T16:28:57.148Z,21.72
2023-05-10T16:31:25.102Z,21.11
2023-05-10T16:33:51.835Z,20.95
2023-05-10T16:36:18.683Z,20.63
2023-05-10T16:38:45.242Z,20.62
2023-05-10T16:41:11.812Z,20.01
2023-05-10T16:43:38.402Z,19.83
2023-05-10T16:46:10.244Z,19.62
2023-05-10T16:48:38.440Z,19.59
2023-05-10T16:51:05.045Z,19.52
2023-05-10T16:53:31.893Z,18.87
2023-05-10T16:55:58.464Z,18.69
2023-05-10T16:58:25.111Z,18.69
2023-05-10T17:00:51.732Z,18.19
2023-05-10T17:03:18.666Z,18.25
2023-05-10T17:05:46.668Z,18.21
2023-05-10T17:08:13.126Z,18.14
2023-05-10T17:10:40.148Z,17.83
2023-05-10T17:13:08.117Z,17.04
2023-05-10T17:15:36.763Z,17.22
2023-05-10T17:18:03.516Z,17.29
2023-05-10T17:20:30.147Z,17.46
2023-05-10T17:22:58.110Z,17.29
2023-05-10T17:25:24.783Z,17.45
2023-05-10T17:27:51.403Z,17.52
2023-05-10T17:30:18.018Z,17.46
2023-05-10T17:32:44.711Z,17.37
2023-05-10T17:35:14.198Z,17.39
2023-05-10T17:37:40.855Z,17.37
2023-05-10T17:40:10.251Z,17.40
2023-05-10T17:42:36.820Z,17.51
2023-05-10T17:45:03.681Z,17.67
2023-05-10T17:47:31.552Z,17.66
2023-05-10T17:49:58.200Z,17.48
2023-05-10T17:52:24.805Z,17.51
2023-05-10T17:54:51.366Z,17.57
2023-05-10T17:57:19.344Z,17.47
2023-05-10T17:59:45.902Z,17.49
2023-05-10T18:02:13.267Z,17.54
2023-05-10T18:04:40.126Z,17.61
2023-05-10T18:07:06.995Z,17.66
2023-05-10T18:09:33.492Z,17.58
2023-05-10T18:12:01.710Z,17.51
2023-05-10T18:14:39.697Z,17.51
2023-05-10T18:17:07.572Z,17.40
2023-05-10T18:19:34.330Z,17.20
2023-05-10T18:22:00.913Z,17.12
2023-05-10T18:24:38.320Z,17.01
2023-05-10T18:27:06.092Z,17.07
2023-05-10T18:29:34.322Z,16.87
2023-05-10T18:32:00.881Z,16.75
2023-05-10T18:34:27.441Z,16.89
2023-05-10T18:36:54.097Z,16.79
2023-05-10T18:39:20.793Z,16.76
2023-05-10T18:41:47.494Z,16.61
2023-05-10T18:44:14.157Z,16.63
2023-05-10T18:46:42.300Z,16.59
2023-05-10T18:49:08.958Z,16.72
2023-05-10T18:51:35.650Z,16.60
2023-05-10T18:54:02.223Z,16.42
2023-05-10T18:56:28.793Z,16.44
2023-05-10T18:58:55.314Z,16.41
2023-05-10T19:01:21.868Z,16.34
2023-05-10T19:03:49.806Z,16.34
2023-05-10T19:06:16.388Z,16.40
2023-05-10T19:08:43.058Z,16.32
2023-05-10T19:11:09.618Z,16.34
2023-05-10T19:13:36.470Z,16.07
2023-05-10T19:16:04.707Z,16.15
2023-05-10T19:18:33.219Z,16.11
2023-05-10T19:21:02.140Z,16.07
2023-05-10T19:23:28.840Z,16.26
2023-05-10T19:25:55.394Z,16.09
2023-05-10T19:28:22.006Z,16.11
2023-05-10T19:30:48.664Z,16.17
2023-05-10T19:33:15.290Z,16.08
2023-05-10T19:35:41.943Z,16.15
2023-05-10T19:38:10.003Z,16.13
2023-05-10T19:40:36.571Z,16.20
2023-05-10T19:43:03.282Z,16.13
2023-05-10T19:45:30.066Z,16.18
2023-05-10T19:47:56.628Z,16.20
2023-05-10T19:50:23.299Z,16.22
2023-05-10T19:52:50.627Z,16.28
2023-05-10T19:55:27.055Z,16.25
2023-05-10T19:57:53.712Z,16.14
2023-05-10T20:00:20.338Z,16.02
2023-05-10T20:02:46.971Z,15.98
2023-05-10T20:05:13.585Z,15.93
2023-05-10T20:07:40.166Z,15.73
2023-05-10T20:10:07.941Z,15.72
2023-05-10T20:12:35.938Z,15.81
2023-05-10T20:15:02.705Z,15.88
2023-05-10T20:17:29.580Z,15.88
2023-05-10T20:19:56.189Z,15.91
2023-05-10T20:22:22.732Z,15.91
2023-05-10T20:24:49.325Z,15.98
2023-05-10T20:27:16.969Z,15.99
2023-05-10T20:29:44.889Z,16.01
2023-05-10T20:32:11.443Z,16.01
2023-05-10T20:34:37.995Z,15.96
2023-05-10T20:37:04.551Z,15.96
2023-05-10T20:39:31.128Z,15.95
2023-05-10T20:41:57.699Z,15.94
2023-05-10T20:44:24.332Z,15.84
2023-05-10T20:46:53.025Z,15.70
2023-05-10T20:49:19.596Z,15.68
2023-05-10T20:51:56.494Z,15.72
2023-05-10T20:54:23.128Z,15.73
2023-05-10T20:56:49.839Z,15.70
2023-05-10T20:59:16.459Z,15.71
2023-05-10T21:01:43.041Z,15.76
2023-05-10T21:04:11.061Z,15.80
2023-05-10T21:06:38.308Z,15.79
2023-05-10T21:09:05.025Z,15.88
2023-05-10T21:11:35.942Z,15.89
2023-05-10T21:14:02.776Z,15.73
2023-05-10T21:16:29.386Z,15.79
2023-05-10T21:18:56.018Z,15.83
2023-05-10T21:21:24.012Z,15.64
2023-05-10T21:23:50.576Z,15.76
2023-05-10T21:26:17.159Z,15.82
2023-05-10T21:28:44.305Z,15.73
2023-05-10T21:31:11.001Z,15.80
2023-05-10T21:33:37.574Z,15.90
2023-05-10T21:36:04.895Z,15.87
2023-05-10T21:38:33.291Z,15.81
2023-05-10T21:41:15.470Z,15.78
2023-05-10T21:43:42.649Z,15.80
2023-05-10T21:46:09.428Z,15.79
2023-05-10T21:48:36.337Z,15.78
2023-05-10T21:51:03.033Z,15.79
2023-05-10T21:53:29.553Z,15.83
2023-05-10T21:55:57.535Z,15.82
2023-05-10T21:58:24.211Z,15.83
2023-05-10T22:00:51.015Z,15.87
2023-05-10T22:03:18.321Z,15.84
2023-05-10T22:05:45.038Z,15.75
2023-05-10T22:08:11.678Z,15.70
2023-05-10T22:10:38.327Z,15.72
2023-05-10T22:13:06.514Z,15.73
2023-05-10T22:15:35.545Z,15.72
2023-05-10T22:18:03.064Z,15.72
2023-05-10T22:20:29.807Z,15.74
2023-05-10T22:22:56.372Z,15.74
2023-05-10T22:25:22.911Z,15.67
2023-05-10T22:30:32.783Z,15.69
2023-05-10T22:32:59.724Z,15.66
2023-05-10T22:35:26.346Z,15.71
2023-05-10T22:37:52.917Z,15.74
2023-05-10T22:40:19.635Z,15.66
2023-05-10T22:42:46.279Z,15.70
2023-05-10T22:45:12.873Z,15.79
2023-05-10T22:47:41.369Z,15.87
2023-05-10T22:50:09.200Z,15.91
2023-05-10T22:52:35.752Z,15.89
2023-05-10T22:55:02.274Z,15.91
2023-05-10T22:57:29.378Z,15.86
2023-05-10T22:59:55.931Z,15.88
2023-05-10T23:02:22.623Z,15.87
2023-05-10T23:04:50.793Z,15.87
2023-05-10T23:07:17.333Z,15.84
2023-05-10T23:09:43.888Z,15.97
2023-05-10T23:12:10.469Z,15.95
2023-05-10T23:14:37.003Z,15.92
2023-05-10T23:17:03.552Z,15.89
2023-05-10T23:19:30.162Z,15.89
2023-05-10T23:21:58.083Z,15.81
2023-05-10T23:24:24.623Z,15.81
2023-05-10T23:26:51.453Z,15.81
2023-05-10T23:29:18.136Z,15.96
2023-05-10T23:31:44.713Z,15.92
2023-05-10T23:34:11.391Z,15.86
2023-05-10T23:36:38.061Z,15.74
2023-05-10T23:39:06.608Z,15.61
2023-05-10T23:41:33.158Z,15.58
2023-05-10T23:43:59.881Z,15.57
2023-05-10T23:46:26.516Z,15.65
2023-05-10T23:48:53.299Z,15.53
2023-05-10T23:51:19.847Z,15.52
2023-05-10T23:53:46.436Z,15.52
2023-05-10T23:56:14.496Z,15.60
2023-05-10T23:58:41.047Z,15.58
